Time;durP1;ratioP1;P1;durP2;ratioP2;P2;SDS_P1;SDS_P2;PMS_P1;PMS_P2;Temp;Humidity;BMP_temperature;BMP_pressure;BME280_temperature;BME280_humidity;BME280_pressure;Samples;Min_cycle;Max_cycle;Signal;HPM_P1;HPM_P2
2023/08/29 00:01:17;;;;;;;1.87;1.53;;;17.60;99.90;;;;;;5216236;28;20275;-42
2023/08/29 00:03:48;;;;;;;3.50;2.33;;;17.50;99.90;;;;;;5234779;28;20292;-43
2023/08/29 00:06:18;;;;;;;1.70;1.60;;;17.50;99.90;;;;;;5244600;28;20187;-42
2023/08/29 00:08:49;;;;;;;2.13;2.03;;;17.50;99.90;;;;;;5223850;28;20616;-42
2023/08/29 00:11:19;;;;;;;10.20;4.07;;;17.40;99.90;;;;;;5230161;28;20209;-42
2023/08/29 00:13:52;;;;;;;1.70;1.60;;;17.30;99.90;;;;;;5220997;28;20615;-42
2023/08/29 00:16:23;;;;;;;7.53;2.90;;;17.30;99.90;;;;;;5215310;28;20550;-42
2023/08/29 00:18:53;;;;;;;5.30;2.87;;;17.20;99.90;;;;;;5233285;28;20457;-42
2023/08/29 00:21:24;;;;;;;4.87;3.37;;;17.10;99.90;;;;;;5238101;28;20178;-42
2023/08/29 00:23:56;;;;;;;2.90;2.70;;;17.00;99.90;;;;;;5226447;28;20265;-42
2023/08/29 00:26:26;;;;;;;3.30;3.00;;;16.90;99.90;;;;;;5242270;28;20179;-42
2023/08/29 00:28:57;;;;;;;3.07;2.77;;;16.90;99.90;;;;;;5223233;28;20798;-42
2023/08/29 00:31:29;;;;;;;3.80;3.50;;;16.80;99.90;;;;;;5233939;28;20171;-41
2023/08/29 00:33:59;;;;;;;5.93;4.03;;;16.80;99.90;;;;;;5224073;28;20674;-41
2023/08/29 00:36:30;;;;;;;6.00;3.60;;;16.80;99.90;;;;;;5224652;28;20434;-42
2023/08/29 00:39:00;;;;;;;6.57;4.30;;;16.70;99.90;;;;;;5238298;28;20202;-42
2023/08/29 00:41:32;;;;;;;3.80;3.50;;;16.60;99.90;;;;;;5210556;28;20552;-42
2023/08/29 00:44:06;;;;;;;3.93;3.60;;;16.50;99.90;;;;;;5236083;28;20579;-41
2023/08/29 00:46:37;;;;;;;7.07;3.20;;;16.50;99.90;;;;;;5218082;28;20927;-41
2023/08/29 00:49:09;;;;;;;4.33;3.93;;;16.50;99.90;;;;;;5214597;28;20470;-41
2023/08/29 00:51:40;;;;;;;3.43;3.30;;;16.40;99.90;;;;;;5207783;28;20441;-42
2023/08/29 00:54:13;;;;;;;3.60;3.40;;;16.40;99.90;;;;;;5227806;28;20421;-42
2023/08/29 00:56:45;;;;;;;4.37;3.90;;;16.40;99.90;;;;;;5215782;28;20421;-42
2023/08/29 00:59:16;;;;;;;3.60;2.77;;;16.40;99.90;;;;;;5223436;28;20468;-41
2023/08/29 01:01:47;;;;;;;3.30;3.10;;;16.40;99.90;;;;;;5204778;28;20438;-42
2023/08/29 01:04:19;;;;;;;3.70;3.03;;;16.40;99.90;;;;;;5227286;28;20235;-43
2023/08/29 01:06:51;;;;;;;3.77;2.93;;;16.40;99.90;;;;;;5229655;28;20443;-42
2023/08/29 01:09:22;;;;;;;2.93;2.73;;;16.40;99.90;;;;;;5225943;28;20429;-42
2023/08/29 01:12:16;;;;;;;2.60;2.50;;;16.40;99.90;;;;;;5219042;28;20739;-41
2023/08/29 01:15:03;;;;;;;6.33;2.70;;;16.40;99.90;;;;;;5242724;28;20510;-41
2023/08/29 01:17:41;;;;;;;5.67;3.60;;;16.40;99.90;;;;;;5226698;28;20511;-42
2023/08/29 01:20:13;;;;;;;3.53;3.00;;;16.40;99.90;;;;;;5217691;28;20934;-41
2023/08/29 01:23:21;;;;;;;6.73;2.87;;;16.50;99.90;;;;;;5220027;28;20426;-43
2023/08/29 01:26:28;;;;;;;3.10;2.93;;;16.50;99.90;;;;;;5231134;28;20434;-41
2023/08/29 01:29:01;;;;;;;3.40;3.20;;;16.40;99.90;;;;;;5187615;28;20863;-42
2023/08/29 01:31:33;;;;;;;3.33;3.03;;;16.50;99.90;;;;;;5240051;28;20551;-41
2023/08/29 01:34:05;;;;;;;3.37;2.97;;;16.50;99.90;;;;;;5217168;28;20466;-40
2023/08/29 01:36:43;;;;;;;3.30;3.10;;;16.50;99.90;;;;;;5218337;28;20445;-43
2023/08/29 01:39:13;;;;;;;2.80;2.60;;;16.40;99.90;;;;;;5236903;28;20446;-41
2023/08/29 01:41:44;;;;;;;3.83;2.87;;;16.40;99.90;;;;;;5225073;28;20486;-42
2023/08/29 01:44:14;;;;;;;8.87;2.77;;;16.40;99.90;;;;;;5233401;28;20567;-41
2023/08/29 01:46:45;;;;;;;3.70;2.70;;;16.40;99.90;;;;;;5224298;28;20171;-42
2023/08/29 01:49:16;;;;;;;3.03;2.73;;;16.30;99.90;;;;;;5221767;28;20233;-42
2023/08/29 01:51:47;;;;;;;2.77;2.67;;;16.30;99.90;;;;;;5216327;28;20175;-40
2023/08/29 01:54:18;;;;;;;3.10;2.90;;;16.20;99.90;;;;;;5211679;28;20422;-41
2023/08/29 01:56:50;;;;;;;3.13;3.00;;;16.20;99.90;;;;;;5222735;28;20445;-43
2023/08/29 01:59:22;;;;;;;2.70;2.47;;;16.10;99.90;;;;;;5220401;28;20265;-41
2023/08/29 02:01:53;;;;;;;7.20;2.40;;;16.10;99.90;;;;;;5231770;28;20434;-41
2023/08/29 02:04:23;;;;;;;2.47;2.33;;;16.10;99.90;;;;;;5240089;28;20473;-42
2023/08/29 02:06:54;;;;;;;3.77;2.73;;;16.10;99.90;;;;;;5218997;28;20190;-42
2023/08/29 02:09:25;;;;;;;2.37;2.27;;;16.10;99.90;;;;;;5218107;28;20222;-42
2023/08/29 02:11:55;;;;;;;3.43;1.77;;;16.10;99.90;;;;;;5236334;28;20175;-41
2023/08/29 02:14:26;;;;;;;2.17;2.07;;;16.10;99.90;;;;;;5230182;28;20199;-41
2023/08/29 02:16:56;;;;;;;9.70;2.53;;;16.10;99.90;;;;;;5240688;28;20196;-42
2023/08/29 02:19:28;;;;;;;2.60;2.47;;;16.10;99.90;;;;;;5228301;28;20194;-42
2023/08/29 02:21:59;;;;;;;2.20;2.10;;;16.00;99.90;;;;;;5222863;28;20590;-41
2023/08/29 02:24:30;;;;;;;2.50;2.30;;;16.00;99.90;;;;;;5231908;28;20556;-42
2023/08/29 02:27:02;;;;;;;4.33;2.07;;;15.90;99.90;;;;;;5227665;28;20563;-40
2023/08/29 02:29:33;;;;;;;2.03;1.93;;;15.90;99.90;;;;;;5227849;28;20236;-42
2023/08/29 02:32:04;;;;;;;3.30;1.97;;;15.80;99.90;;;;;;5244197;28;20894;-41
2023/08/29 02:34:34;;;;;;;2.27;2.17;;;15.80;99.90;;;;;;5232985;28;20183;-41
2023/08/29 02:37:05;;;;;;;5.73;1.47;;;15.80;99.90;;;;;;5234620;28;20940;-42
2023/08/29 02:39:35;;;;;;;1.97;1.80;;;15.80;99.90;;;;;;5221271;28;20188;-41
2023/08/29 02:42:06;;;;;;;1.77;1.73;;;15.80;99.90;;;;;;5231107;28;20197;-41
2023/08/29 02:44:38;;;;;;;3.83;1.77;;;15.80;99.90;;;;;;5230868;28;20210;-42
2023/08/29 02:47:08;;;;;;;1.53;1.43;;;15.80;99.90;;;;;;5224452;28;20450;-41
2023/08/29 02:49:39;;;;;;;2.40;1.50;;;15.80;99.90;;;;;;5239676;28;20476;-42
2023/08/29 02:52:09;;;;;;;7.17;1.70;;;15.80;99.90;;;;;;5233932;28;20175;-42
2023/08/29 02:54:40;;;;;;;2.37;2.03;;;15.70;99.90;;;;;;5221060;28;20196;-41
2023/08/29 02:57:11;;;;;;;2.93;1.77;;;15.60;99.90;;;;;;5220950;28;20187;-42
2023/08/29 02:59:41;;;;;;;4.33;1.77;;;15.60;99.90;;;;;;5230613;28;20179;-41
2023/08/29 03:02:12;;;;;;;2.10;1.90;;;15.60;99.90;;;;;;5224887;28;20195;-42
2023/08/29 03:04:43;;;;;;;1.90;1.80;;;15.60;99.90;;;;;;5225883;28;20524;-42
2023/08/29 03:07:14;;;;;;;2.33;1.70;;;15.50;99.90;;;;;;5235726;28;20443;-42
2023/08/29 03:09:44;;;;;;;1.90;1.73;;;15.60;99.90;;;;;;5231423;28;20176;-43
2023/08/29 03:12:15;;;;;;;1.63;1.63;;;15.50;99.90;;;;;;5235556;28;20605;-42
2023/08/29 03:14:45;;;;;;;1.30;1.30;;;15.50;99.90;;;;;;5232208;28;20182;-43
2023/08/29 03:17:16;;;;;;;3.80;1.93;;;15.50;99.90;;;;;;5227624;28;20277;-41
2023/08/29 03:19:47;;;;;;;1.80;1.70;;;15.40;99.90;;;;;;5228142;28;20175;-41
2023/08/29 03:22:18;;;;;;;1.70;1.60;;;15.40;99.90;;;;;;5232353;28;20179;-41
2023/08/29 03:24:48;;;;;;;1.80;1.70;;;15.30;99.90;;;;;;5225559;28;20503;-41
2023/08/29 03:27:19;;;;;;;9.03;1.50;;;15.30;99.90;;;;;;5233272;28;20202;-41
2023/08/29 03:29:51;;;;;;;2.40;1.47;;;15.30;99.90;;;;;;5231065;28;20237;-42
2023/08/29 03:32:22;;;;;;;1.83;1.73;;;15.20;99.90;;;;;;5234119;28;20175;-41
2023/08/29 03:34:58;;;;;;;2.07;1.90;;;15.20;99.90;;;;;;5228358;28;20431;-42
2023/08/29 03:37:28;;;;;;;2.87;1.43;;;15.20;99.90;;;;;;5215220;28;20226;-41
2023/08/29 03:39:59;;;;;;;1.97;1.83;;;15.20;99.90;;;;;;5251676;28;20441;-41
2023/08/29 03:42:30;;;;;;;1.70;1.60;;;15.20;99.90;;;;;;5248983;28;20179;-41
2023/08/29 03:45:00;;;;;;;2.93;1.30;;;15.30;99.90;;;;;;5250857;28;20329;-41
2023/08/29 03:47:33;;;;;;;2.50;1.53;;;15.30;99.90;;;;;;5232887;28;20211;-41
2023/08/29 03:50:05;;;;;;;1.83;1.30;;;15.30;99.90;;;;;;5232798;28;20184;-42
2023/08/29 03:52:36;;;;;;;6.60;1.77;;;15.20;99.90;;;;;;5216907;28;20810;-42
2023/08/29 03:55:07;;;;;;;1.67;1.57;;;15.20;99.90;;;;;;5249026;28;20441;-42
2023/08/29 03:57:38;;;;;;;2.73;1.40;;;15.20;99.90;;;;;;5224262;28;20218;-41
2023/08/29 04:00:11;;;;;;;1.10;1.10;;;15.20;99.90;;;;;;5235988;28;20442;-41
2023/08/29 04:02:41;;;;;;;2.33;1.70;;;15.20;99.90;;;;;;5243427;28;20517;-42
2023/08/29 04:05:17;;;;;;;2.10;1.40;;;15.20;99.90;;;;;;5249432;28;20434;-41
2023/08/29 04:07:48;;;;;;;1.60;1.50;;;15.20;99.90;;;;;;5223708;28;20195;-42
2023/08/29 04:10:19;;;;;;;1.93;1.37;;;15.20;99.90;;;;;;5236359;28;20573;-42
2023/08/29 04:12:49;;;;;;;1.60;1.60;;;15.20;99.90;;;;;;5241023;28;20171;-42
2023/08/29 04:15:20;;;;;;;2.40;1.60;;;15.20;99.90;;;;;;5224647;28;20190;-41
2023/08/29 04:17:51;;;;;;;2.77;1.60;;;15.20;99.90;;;;;;5222799;28;20202;-42
2023/08/29 04:20:22;;;;;;;1.70;1.70;;;15.20;99.90;;;;;;5223951;28;20183;-41
2023/08/29 04:22:54;;;;;;;4.00;1.57;;;15.20;99.90;;;;;;5240278;28;20633;-41
2023/08/29 04:25:28;;;;;;;5.07;1.37;;;15.20;99.90;;;;;;5206518;28;20529;-43
2023/08/29 04:27:59;;;;;;;1.70;1.60;;;15.20;99.90;;;;;;5228495;28;20450;-42
2023/08/29 04:30:30;;;;;;;3.20;1.50;;;15.20;99.90;;;;;;5218494;28;20429;-42
2023/08/29 04:33:01;;;;;;;1.70;1.30;;;15.20;99.90;;;;;;5214970;28;20888;-41
2023/08/29 04:35:31;;;;;;;4.10;1.50;;;15.10;99.90;;;;;;5223569;28;20175;-41
2023/08/29 04:38:02;;;;;;;3.50;2.10;;;15.10;99.90;;;;;;5227501;28;20233;-41
2023/08/29 04:40:35;;;;;;;1.67;1.67;;;15.00;99.90;;;;;;5239339;28;20182;-41
2023/08/29 04:43:05;;;;;;;1.57;1.57;;;15.00;99.90;;;;;;5234444;28;20211;-42
2023/08/29 04:45:36;;;;;;;3.43;1.50;;;14.90;99.90;;;;;;5221843;28;20453;-41
2023/08/29 04:48:07;;;;;;;4.87;1.67;;;14.90;99.90;;;;;;5235294;28;20210;-42
2023/08/29 04:50:37;;;;;;;1.43;1.40;;;14.90;99.90;;;;;;5238544;28;20446;-43
2023/08/29 04:53:08;;;;;;;2.73;2.20;;;14.90;99.90;;;;;;5245426;28;20591;-41
2023/08/29 04:55:39;;;;;;;3.30;1.97;;;14.90;99.90;;;;;;5235477;28;20187;-41
2023/08/29 04:58:09;;;;;;;1.60;1.40;;;14.90;99.90;;;;;;5249420;28;20313;-42
2023/08/29 05:00:40;;;;;;;1.83;1.73;;;14.90;99.90;;;;;;5234066;28;20269;-41
2023/08/29 05:03:11;;;;;;;1.90;1.80;;;14.80;99.90;;;;;;5231340;28;20207;-41
2023/08/29 05:05:45;;;;;;;2.97;1.67;;;14.80;99.90;;;;;;5225768;28;20190;-42
2023/08/29 05:08:16;;;;;;;1.60;1.53;;;14.80;99.90;;;;;;5222224;28;20199;-43
2023/08/29 05:10:49;;;;;;;2.00;1.80;;;14.80;99.90;;;;;;5223332;28;20929;-42
2023/08/29 05:13:20;;;;;;;1.50;1.40;;;14.80;99.90;;;;;;5245957;28;20212;-41
2023/08/29 05:15:50;;;;;;;1.90;1.80;;;14.80;99.90;;;;;;5236126;28;20429;-41
2023/08/29 05:18:21;;;;;;;11.80;1.83;;;14.80;99.90;;;;;;5218565;28;20211;-42
2023/08/29 05:20:52;;;;;;;9.13;2.20;;;14.80;99.90;;;;;;5229548;28;20187;-42
2023/08/29 05:23:22;;;;;;;2.07;1.97;;;14.90;99.90;;;;;;5243099;28;20200;-41
2023/08/29 05:25:53;;;;;;;1.00;1.00;;;14.90;99.90;;;;;;5228669;28;20247;-42
2023/08/29 05:28:24;;;;;;;2.40;2.20;;;15.00;99.90;;;;;;5229557;28;20672;-42
2023/08/29 05:30:54;;;;;;;2.73;2.17;;;15.00;99.90;;;;;;5240433;28;20210;-42
2023/08/29 05:33:25;;;;;;;2.77;1.80;;;15.00;99.90;;;;;;5250811;28;20178;-41
2023/08/29 05:35:56;;;;;;;1.90;1.53;;;15.10;99.90;;;;;;5240736;28;20175;-41
2023/08/29 05:38:27;;;;;;;2.60;2.50;;;15.10;99.90;;;;;;5248040;28;20666;-41
2023/08/29 05:40:57;;;;;;;3.27;2.43;;;15.20;99.90;;;;;;5236395;28;20550;-43
2023/08/29 05:43:28;;;;;;;2.17;2.07;;;15.20;99.90;;;;;;5250771;28;20457;-41
2023/08/29 05:45:59;;;;;;;2.13;2.03;;;15.30;99.90;;;;;;5223863;28;20175;-42
2023/08/29 05:48:29;;;;;;;1.73;1.63;;;15.30;99.90;;;;;;5233578;28;20207;-41
2023/08/29 05:51:00;;;;;;;3.53;2.07;;;15.40;99.90;;;;;;5231837;28;20213;-42
2023/08/29 05:53:30;;;;;;;3.60;2.07;;;15.40;99.90;;;;;;5231208;28;20209;-42
2023/08/29 05:56:01;;;;;;;3.20;2.00;;;15.50;99.90;;;;;;5243517;28;20699;-42
2023/08/29 05:58:32;;;;;;;2.70;1.87;;;15.60;99.90;;;;;;5239954;28;20249;-42
2023/08/29 06:01:06;;;;;;;2.07;1.97;;;15.70;99.90;;;;;;5236665;28;20188;-42
2023/08/29 06:03:37;;;;;;;2.83;2.00;;;15.70;99.90;;;;;;5228291;28;20209;-42
2023/08/29 06:06:07;;;;;;;2.60;1.73;;;15.60;99.90;;;;;;5237859;28;21133;-41
2023/08/29 06:08:40;;;;;;;2.30;2.20;;;15.70;99.90;;;;;;5255586;28;20214;-42
2023/08/29 06:11:11;;;;;;;2.77;2.57;;;15.60;99.90;;;;;;5248256;28;20249;-43
2023/08/29 06:13:42;;;;;;;2.40;2.23;;;15.60;99.90;;;;;;5227926;28;20496;-43
2023/08/29 06:16:13;;;;;;;2.70;2.50;;;15.50;99.90;;;;;;5233356;28;20430;-42
2023/08/29 06:18:43;;;;;;;3.33;2.80;;;15.50;99.90;;;;;;5229472;28;20263;-42
2023/08/29 06:21:14;;;;;;;2.43;2.20;;;15.50;99.90;;;;;;5227419;28;20195;-42
2023/08/29 06:23:44;;;;;;;2.40;2.17;;;15.50;99.90;;;;;;5239417;28;20203;-42
2023/08/29 06:26:16;;;;;;;5.50;3.03;;;15.60;99.90;;;;;;5253288;28;20187;-43
2023/08/29 06:28:47;;;;;;;2.50;2.40;;;15.60;99.90;;;;;;5229691;28;20255;-43
2023/08/29 06:31:17;;;;;;;2.50;2.40;;;15.80;99.90;;;;;;5250406;28;20517;-43
2023/08/29 06:33:49;;;;;;;3.13;2.93;;;16.00;99.90;;;;;;5238833;28;20445;-43
2023/08/29 06:36:19;;;;;;;2.73;2.63;;;16.20;99.90;;;;;;5225799;28;20179;-42
2023/08/29 06:38:50;;;;;;;3.40;2.13;;;16.50;99.90;;;;;;5217486;28;20465;-43
2023/08/29 06:41:20;;;;;;;2.70;2.60;;;16.60;99.90;;;;;;5247074;28;20203;-42
2023/08/29 06:43:51;;;;;;;2.10;2.10;;;16.70;99.90;;;;;;5225134;28;20246;-42
2023/08/29 06:46:23;;;;;;;2.47;2.33;;;16.80;99.90;;;;;;5219747;28;20235;-42
2023/08/29 06:48:53;;;;;;;3.27;2.97;;;16.80;99.90;;;;;;5220767;28;20195;-42
2023/08/29 06:51:24;;;;;;;2.23;2.13;;;16.80;99.90;;;;;;5236981;28;20530;-44
2023/08/29 06:53:54;;;;;;;1.77;1.77;;;16.80;99.90;;;;;;5237662;28;20222;-42
2023/08/29 06:56:25;;;;;;;7.13;2.40;;;16.90;99.90;;;;;;5234507;28;20668;-42
2023/08/29 06:58:56;;;;;;;4.00;2.87;;;17.00;99.90;;;;;;5226496;28;20244;-43
2023/08/29 07:01:26;;;;;;;2.77;2.57;;;16.90;99.90;;;;;;5228681;28;20210;-43
2023/08/29 07:03:57;;;;;;;2.10;1.90;;;16.90;99.90;;;;;;5223526;28;20230;-43
2023/08/29 07:06:27;;;;;;;2.37;2.17;;;16.80;99.90;;;;;;5230019;28;20271;-41
2023/08/29 07:08:58;;;;;;;2.20;2.10;;;16.90;99.90;;;;;;5232539;28;20203;-42
2023/08/29 07:11:29;;;;;;;4.27;2.63;;;16.80;99.90;;;;;;5232022;28;20172;-41
2023/08/29 07:13:59;;;;;;;4.17;1.97;;;16.80;99.90;;;;;;5245194;28;20263;-41
2023/08/29 07:16:31;;;;;;;8.70;2.77;;;16.90;99.90;;;;;;5243808;28;20209;-43
2023/08/29 07:19:02;;;;;;;2.07;1.97;;;16.80;99.90;;;;;;5223091;28;20214;-42
2023/08/29 07:21:32;;;;;;;2.50;2.30;;;16.80;99.90;;;;;;5233585;28;20442;-42
2023/08/29 07:24:04;;;;;;;5.50;2.70;;;16.70;99.90;;;;;;5231687;28;20270;-42
2023/08/29 07:26:34;;;;;;;2.57;2.47;;;16.80;99.90;;;;;;5228378;28;20187;-42
2023/08/29 07:29:05;;;;;;;2.57;2.50;;;16.50;99.90;;;;;;5227099;28;20480;-42
2023/08/29 07:31:36;;;;;;;3.30;3.10;;;16.30;99.90;;;;;;5227638;28;20191;-42
2023/08/29 07:34:06;;;;;;;5.80;3.37;;;16.20;99.90;;;;;;5232124;28;20520;-42
2023/08/29 07:36:37;;;;;;;3.47;3.27;;;16.20;99.90;;;;;;5224827;28;20193;-43
2023/08/29 07:39:08;;;;;;;4.97;3.53;;;16.10;99.90;;;;;;5229144;28;20218;-42
2023/08/29 07:41:38;;;;;;;8.27;3.57;;;16.10;99.90;;;;;;5247125;28;20218;-42
2023/08/29 07:44:09;;;;;;;5.03;3.10;;;16.00;99.90;;;;;;5246053;28;20210;-42
2023/08/29 07:46:40;;;;;;;3.30;3.00;;;16.10;99.90;;;;;;5232774;28;20229;-42
2023/08/29 07:49:13;;;;;;;4.37;3.97;;;16.00;99.90;;;;;;5225411;28;20200;-42
2023/08/29 07:51:44;;;;;;;2.97;2.53;;;15.90;99.90;;;;;;5229897;28;20312;-43
2023/08/29 07:54:14;;;;;;;5.60;4.00;;;15.90;99.90;;;;;;5219382;28;20445;-42
2023/08/29 07:56:45;;;;;;;4.80;4.27;;;15.90;99.90;;;;;;5225584;28;20218;-43
2023/08/29 07:59:16;;;;;;;4.27;3.87;;;15.90;99.90;;;;;;5228705;28;20327;-43
2023/08/29 08:01:48;;;;;;;12.33;4.53;;;15.80;99.90;;;;;;5246776;28;20214;-43
2023/08/29 08:04:18;;;;;;;4.23;3.83;;;15.70;99.90;;;;;;5240050;28;20616;-44
2023/08/29 08:06:49;;;;;;;4.83;3.70;;;15.50;99.90;;;;;;5222460;28;20461;-43
2023/08/29 08:09:19;;;;;;;5.60;3.63;;;15.50;99.90;;;;;;5222108;28;20211;-44
2023/08/29 08:11:51;;;;;;;3.70;3.50;;;15.50;99.90;;;;;;5230644;28;20186;-43
2023/08/29 08:14:21;;;;;;;18.13;4.37;;;15.60;99.90;;;;;;5219929;28;20636;-44
2023/08/29 08:16:52;;;;;;;4.97;4.63;;;15.70;99.90;;;;;;5221185;28;20445;-44
2023/08/29 08:19:22;;;;;;;3.77;3.50;;;15.70;99.90;;;;;;5222887;28;20285;-44
2023/08/29 08:21:53;;;;;;;4.80;4.50;;;15.90;99.90;;;;;;5228992;28;20179;-44
2023/08/29 08:24:24;;;;;;;8.00;5.23;;;15.90;99.90;;;;;;5217325;28;20299;-44
2023/08/29 08:26:54;;;;;;;9.57;4.73;;;15.90;99.90;;;;;;5227829;28;20175;-44
2023/08/29 08:29:25;;;;;;;7.60;4.70;;;15.80;99.90;;;;;;5241409;28;20223;-44
2023/08/29 08:31:55;;;;;;;5.43;4.40;;;15.80;99.90;;;;;;5217659;28;20183;-44
2023/08/29 08:34:26;;;;;;;9.93;4.50;;;15.90;99.90;;;;;;5214058;28;20175;-45
2023/08/29 08:36:57;;;;;;;7.23;5.07;;;16.00;99.90;;;;;;5240834;28;20199;-43
2023/08/29 08:39:30;;;;;;;4.57;4.30;;;15.90;99.90;;;;;;5214774;28;20186;-43
2023/08/29 08:42:04;;;;;;;14.90;6.93;;;15.80;99.90;;;;;;5210919;28;20206;-43
2023/08/29 08:44:35;;;;;;;4.97;4.37;;;15.80;99.90;;;;;;5222751;28;20523;-43
2023/08/29 08:47:06;;;;;;;5.70;5.17;;;15.60;99.90;;;;;;5218141;28;20448;-45
2023/08/29 08:49:38;;;;;;;6.50;6.00;;;15.60;99.90;;;;;;5221215;28;20548;-43
2023/08/29 08:52:11;;;;;;;9.50;5.40;;;15.60;99.90;;;;;;5220040;28;20419;-43
2023/08/29 08:54:41;;;;;;;10.57;5.10;;;15.70;99.90;;;;;;5217928;28;20424;-43
2023/08/29 08:57:13;;;;;;;8.30;5.27;;;15.80;99.90;;;;;;5216246;28;20921;-43
2023/08/29 08:59:44;;;;;;;4.30;4.10;;;16.00;99.90;;;;;;5234707;28;20207;-43
2023/08/29 09:02:16;;;;;;;4.23;3.90;;;16.20;99.90;;;;;;5219681;28;20456;-43
2023/08/29 09:04:47;;;;;;;4.10;3.80;;;16.40;99.90;;;;;;5226300;28;20491;-44
2023/08/29 09:07:18;;;;;;;3.80;3.60;;;16.60;99.90;;;;;;5217501;28;20449;-44
2023/08/29 09:10:09;;;;;;;3.00;2.90;;;16.70;99.90;;;;;;5225516;28;20174;-43
2023/08/29 09:12:49;;;;;;;2.90;2.77;;;16.80;99.90;;;;;;5209594;28;20703;-44
2023/08/29 09:15:20;;;;;;;4.83;3.80;;;16.80;99.90;;;;;;5211021;28;20428;-43
2023/08/29 09:17:52;;;;;;;3.30;3.10;;;17.10;99.90;;;;;;5216071;28;20991;-43
2023/08/29 09:20:33;;;;;;;5.23;3.33;;;17.30;99.90;;;;;;5228718;28;20434;-43
2023/08/29 09:23:20;;;;;;;2.20;2.00;;;17.40;99.90;;;;;;5226961;28;20526;-43
2023/08/29 09:25:58;;;;;;;2.50;2.37;;;17.50;99.90;;;;;;5225991;28;20429;-44
2023/08/29 09:28:29;;;;;;;2.00;1.90;;;17.60;99.90;;;;;;5227957;28;20440;-43
2023/08/29 09:31:14;;;;;;;1.93;1.80;;;17.80;99.90;;;;;;5234699;28;20433;-43
2023/08/29 09:33:47;;;;;;;2.20;2.13;;;18.20;99.90;;;;;;5213146;28;20175;-42
2023/08/29 09:36:20;;;;;;;2.30;2.20;;;18.60;99.90;;;;;;5237897;28;20651;-43
2023/08/29 09:38:51;;;;;;;1.90;1.80;;;18.80;99.90;;;;;;5242072;28;20453;-42
2023/08/29 09:41:22;;;;;;;2.23;2.00;;;18.80;99.90;;;;;;5249997;28;20485;-43
2023/08/29 09:43:52;;;;;;;4.00;2.10;;;18.60;99.90;;;;;;5217821;28;20234;-43
2023/08/29 09:46:30;;;;;;;2.00;2.00;;;18.50;99.90;;;;;;5218619;28;20274;-42
2023/08/29 09:49:01;;;;;;;2.73;1.70;;;18.50;99.90;;;;;;5226245;28;20195;-42
2023/08/29 09:51:33;;;;;;;2.10;2.00;;;18.60;99.90;;;;;;5240620;28;20433;-43
2023/08/29 09:54:08;;;;;;;7.30;2.60;;;18.50;99.90;;;;;;5231484;28;20179;-43
2023/08/29 09:56:41;;;;;;;2.30;2.17;;;18.50;99.90;;;;;;5235417;28;20434;-43
2023/08/29 09:59:17;;;;;;;1.77;1.77;;;18.60;99.90;;;;;;5224707;28;21052;-42
2023/08/29 10:01:49;;;;;;;2.27;2.07;;;18.50;99.90;;;;;;5230279;28;20781;-42
2023/08/29 10:04:21;;;;;;;3.07;2.73;;;18.70;99.90;;;;;;5236296;28;20455;-43
2023/08/29 10:06:55;;;;;;;3.03;2.50;;;18.70;99.90;;;;;;5227477;28;20433;-42
2023/08/29 10:09:27;;;;;;;2.33;2.23;;;19.00;99.90;;;;;;5234923;28;20457;-43
2023/08/29 10:12:00;;;;;;;2.80;2.60;;;18.90;99.90;;;;;;5234936;28;20456;-43
2023/08/29 10:14:33;;;;;;;2.30;2.10;;;18.70;99.90;;;;;;5236837;28;20515;-42
2023/08/29 10:17:06;;;;;;;2.37;2.33;;;18.40;99.90;;;;;;5243275;28;20439;-42
2023/08/29 10:19:38;;;;;;;2.37;2.17;;;18.10;99.90;;;;;;5225056;28;20441;-43
2023/08/29 10:22:10;;;;;;;2.00;1.90;;;18.00;99.90;;;;;;5245498;28;20445;-42
2023/08/29 10:24:43;;;;;;;3.63;2.43;;;18.00;99.90;;;;;;5231099;28;20511;-42
2023/08/29 10:27:14;;;;;;;1.93;1.90;;;18.10;99.90;;;;;;5244239;28;20510;-43
2023/08/29 10:29:45;;;;;;;3.57;3.30;;;18.30;99.90;;;;;;5230747;28;20465;-42
2023/08/29 10:32:16;;;;;;;3.53;2.40;;;18.40;99.90;;;;;;5224203;28;20183;-42
2023/08/29 10:34:46;;;;;;;3.40;3.17;;;18.40;99.90;;;;;;5239086;28;20274;-42
2023/08/29 10:37:18;;;;;;;2.87;2.67;;;18.30;99.90;;;;;;5228333;28;20480;-43
2023/08/29 10:39:52;;;;;;;3.17;3.07;;;18.30;99.90;;;;;;5237569;28;20267;-43
2023/08/29 10:42:23;;;;;;;3.80;3.50;;;18.30;99.90;;;;;;5225387;28;20454;-42
2023/08/29 10:44:55;;;;;;;2.63;2.50;;;18.20;99.90;;;;;;5246716;28;20524;-42
2023/08/29 10:47:27;;;;;;;3.20;3.00;;;18.30;99.90;;;;;;5230295;28;20191;-42
2023/08/29 10:50:00;;;;;;;4.57;2.43;;;18.30;99.90;;;;;;5219532;28;20501;-47
2023/08/29 10:52:41;;;;;;;2.50;2.40;;;18.40;99.90;;;;;;5222039;28;20418;-41
2023/08/29 10:55:21;;;;;;;3.80;3.60;;;18.40;99.90;;;;;;5231869;28;20457;-42
2023/08/29 10:57:53;;;;;;;3.70;3.40;;;18.50;99.90;;;;;;5221401;28;20995;-42
2023/08/29 11:00:42;;;;;;;3.47;3.17;;;18.60;99.90;;;;;;5242849;28;20433;-42
2023/08/29 11:03:13;;;;;;;3.37;3.07;;;18.70;99.90;;;;;;5225399;28;20454;-43
2023/08/29 11:05:57;;;;;;;4.90;4.23;;;18.70;99.90;;;;;;5228422;28;20441;-44
2023/08/29 11:08:27;;;;;;;3.93;3.73;;;18.60;99.90;;;;;;5235255;28;20190;-43
2023/08/29 11:11:19;;;;;;;3.33;3.17;;;18.60;99.90;;;;;;5227969;28;20448;-43
2023/08/29 11:14:03;;;;;;;12.73;4.50;;;18.70;99.90;;;;;;5210673;28;20194;-43
2023/08/29 11:16:35;;;;;;;4.70;3.87;;;18.60;99.90;;;;;;5221720;28;20425;-43
2023/08/29 11:19:13;;;;;;;2.63;2.53;;;18.70;99.90;;;;;;5212563;28;20462;-42
2023/08/29 11:21:45;;;;;;;3.87;3.43;;;18.80;99.90;;;;;;5217260;28;20520;-42
2023/08/29 11:24:16;;;;;;;7.27;5.83;;;19.00;99.90;;;;;;5228598;28;20553;-43
2023/08/29 11:26:47;;;;;;;4.60;4.30;;;19.20;99.90;;;;;;5222041;28;20521;-42
2023/08/29 11:29:18;;;;;;;4.47;4.10;;;19.40;99.90;;;;;;5243657;28;20321;-42
2023/08/29 11:31:49;;;;;;;4.60;4.23;;;19.50;99.90;;;;;;5223120;28;20440;-43
2023/08/29 11:34:21;;;;;;;5.50;4.27;;;19.60;99.90;;;;;;5221005;28;20430;-42
2023/08/29 11:36:52;;;;;;;14.03;8.17;;;19.50;99.90;;;;;;5217651;28;20179;-41
2023/08/29 11:39:24;;;;;;;10.07;6.20;;;19.70;99.90;;;;;;5231222;28;20488;-42
2023/08/29 11:41:55;;;;;;;4.97;4.43;;;20.10;99.90;;;;;;5248007;28;20441;-43
2023/08/29 11:44:30;;;;;;;7.47;3.70;;;20.40;99.90;;;;;;5235724;28;20460;-42
2023/08/29 11:47:01;;;;;;;6.50;4.73;;;20.40;99.90;;;;;;5224125;28;20170;-42
2023/08/29 11:49:32;;;;;;;4.07;3.77;;;20.60;99.90;;;;;;5215898;28;20426;-41
2023/08/29 11:52:04;;;;;;;3.67;3.57;;;20.60;99.90;;;;;;5217898;28;20238;-42
2023/08/29 11:54:45;;;;;;;7.70;3.53;;;20.70;99.90;;;;;;5234275;28;20430;-42
2023/08/29 11:57:16;;;;;;;4.17;3.87;;;20.50;99.90;;;;;;5223035;28;20453;-42
2023/08/29 11:59:50;;;;;;;5.50;5.10;;;20.20;99.90;;;;;;5244103;28;20433;-43
2023/08/29 12:02:21;;;;;;;5.17;4.77;;;19.90;99.90;;;;;;5229017;28;20410;-42
2023/08/29 12:04:56;;;;;;;4.40;4.10;;;19.70;99.90;;;;;;5241623;28;20468;-42
2023/08/29 12:07:31;;;;;;;4.67;4.47;;;19.40;99.90;;;;;;5238818;28;20653;-43
2023/08/29 12:10:10;;;;;;;7.87;4.70;;;19.40;99.90;;;;;;5244069;28;20808;-43
2023/08/29 12:12:40;;;;;;;4.23;3.90;;;19.30;99.90;;;;;;5214008;28;20440;-42
2023/08/29 12:15:14;;;;;;;4.73;4.43;;;19.20;99.90;;;;;;5224387;28;20426;-43
2023/08/29 12:17:47;;;;;;;5.87;5.00;;;19.30;99.90;;;;;;5217367;28;20599;-42
2023/08/29 12:20:18;;;;;;;3.73;3.53;;;19.20;99.90;;;;;;5216352;28;20509;-42
2023/08/29 12:22:50;;;;;;;6.27;4.60;;;18.90;99.90;;;;;;5231436;28;20438;-43
2023/08/29 12:25:20;;;;;;;10.00;4.10;;;18.90;99.90;;;;;;5221302;28;20180;-43
2023/08/29 12:27:51;;;;;;;3.27;3.17;;;18.80;99.90;;;;;;5224736;28;20545;-42
2023/08/29 12:30:22;;;;;;;4.10;3.90;;;18.90;99.90;;;;;;5228155;28;20175;-42
2023/08/29 12:32:53;;;;;;;4.23;3.73;;;19.10;99.90;;;;;;5227289;28;20194;-42
2023/08/29 12:35:23;;;;;;;4.70;4.30;;;19.10;99.90;;;;;;5223830;28;20193;-43
2023/08/29 12:37:54;;;;;;;4.33;4.03;;;19.00;99.90;;;;;;5236029;28;20195;-42
2023/08/29 12:40:25;;;;;;;4.43;4.20;;;19.10;99.90;;;;;;5212045;28;20753;-43
2023/08/29 12:42:56;;;;;;;5.53;4.70;;;19.10;99.90;;;;;;5217584;28;20190;-42
2023/08/29 12:45:26;;;;;;;4.77;3.83;;;19.00;99.90;;;;;;5217518;28;20176;-43
2023/08/29 12:47:57;;;;;;;9.00;5.33;;;18.90;99.90;;;;;;5224890;28;20801;-44
2023/08/29 12:50:28;;;;;;;4.27;4.03;;;18.90;99.90;;;;;;5220553;28;20183;-43
2023/08/29 12:52:59;;;;;;;4.63;4.23;;;18.90;99.90;;;;;;5214769;28;20174;-42
2023/08/29 12:55:30;;;;;;;4.73;4.43;;;19.10;99.90;;;;;;5226138;28;20433;-43
2023/08/29 12:58:00;;;;;;;4.53;4.17;;;19.20;99.90;;;;;;5217317;28;20321;-43
2023/08/29 13:00:32;;;;;;;3.87;3.60;;;19.50;99.90;;;;;;5230452;28;20175;-42
2023/08/29 13:03:03;;;;;;;4.40;4.20;;;19.70;99.90;;;;;;5227943;28;20177;-42
2023/08/29 13:05:33;;;;;;;6.53;4.60;;;19.70;99.90;;;;;;5228118;28;20425;-42
2023/08/29 13:08:04;;;;;;;4.37;4.03;;;19.50;99.90;;;;;;5218469;28;20218;-42
2023/08/29 13:10:35;;;;;;;16.20;4.80;;;19.30;99.90;;;;;;5229372;28;20186;-42